createdAt,value
2022-11-11T00:00:15.349Z,89.54
2022-11-11T00:03:03.413Z,89.56
2022-11-11T00:05:50.552Z,89.58
2022-11-11T00:08:37.835Z,89.61
2022-11-11T00:11:25.029Z,89.70
2022-11-11T00:14:12.187Z,89.73
2022-11-11T00:17:19.273Z,89.78
2022-11-11T00:20:31.294Z,89.79
2022-11-11T00:23:43.944Z,89.86
2022-11-11T00:26:39.686Z,89.94
2022-11-11T00:29:27.674Z,89.92
2022-11-11T00:32:34.038Z,90.09
2022-11-11T00:35:41.182Z,90.13
2022-11-11T00:38:48.698Z,90.22
2022-11-11T00:41:36.010Z,90.22
2022-11-11T00:44:23.251Z,90.47
2022-11-11T00:47:31.103Z,90.26
2022-11-11T00:50:43.065Z,90.30
2022-11-11T00:53:33.490Z,90.29
2022-11-11T00:56:21.066Z,90.43
2022-11-11T00:59:09.473Z,90.43
2022-11-11T01:01:56.827Z,90.46
2022-11-11T01:04:44.159Z,90.69
2022-11-11T01:07:31.895Z,90.70
2022-11-11T01:10:40.432Z,90.76
2022-11-11T01:13:30.521Z,90.83
2022-11-11T01:16:21.942Z,90.88
2022-11-11T01:19:09.200Z,90.95
2022-11-11T01:21:56.480Z,91.11
2022-11-11T01:24:43.950Z,91.51
2022-11-11T01:27:31.114Z,91.09
2022-11-11T01:30:18.429Z,91.60
2022-11-11T01:33:05.651Z,91.75
2022-11-11T01:35:52.953Z,91.79
2022-11-11T01:38:42.839Z,91.93
2022-11-11T01:41:34.633Z,91.92
2022-11-11T01:44:44.756Z,92.03
2022-11-11T01:48:21.796Z,92.26
2022-11-11T01:51:01.479Z,92.15
2022-11-11T01:53:56.141Z,92.22
2022-11-11T01:56:47.264Z,92.22
2022-11-11T01:59:36.103Z,92.17
2022-11-11T02:02:33.021Z,92.28
2022-11-11T02:05:42.521Z,92.26
2022-11-11T02:08:34.859Z,92.25
2022-11-11T02:11:44.226Z,92.47
2022-11-11T02:14:47.237Z,92.57
2022-11-11T02:17:35.205Z,92.60
2022-11-11T02:20:29.430Z,92.78
2022-11-11T02:23:31.536Z,92.85
2022-11-11T02:26:19.382Z,92.98
2022-11-11T02:29:13.945Z,92.98
2022-11-11T02:32:01.343Z,93.12
2022-11-11T02:34:48.631Z,93.30
2022-11-11T02:37:35.908Z,93.37
2022-11-11T02:40:31.376Z,93.58
2022-11-11T02:43:18.738Z,93.94
2022-11-11T02:46:07.676Z,93.64
2022-11-11T02:48:55.582Z,93.79
2022-11-11T02:51:42.914Z,93.67
2022-11-11T02:54:30.420Z,93.25
2022-11-11T02:57:18.452Z,92.91
2022-11-11T03:00:06.170Z,93.82
2022-11-11T03:02:53.719Z,93.88
2022-11-11T03:05:41.068Z,93.41
2022-11-11T03:08:28.309Z,93.41
2022-11-11T03:11:15.867Z,93.90
2022-11-11T03:14:03.205Z,93.94
2022-11-11T03:17:11.454Z,93.90
2022-11-11T03:20:18.893Z,93.88
2022-11-11T03:23:15.230Z,93.86
2022-11-11T03:26:02.550Z,94.14
2022-11-11T03:28:50.261Z,94.05
2022-11-11T03:31:37.830Z,93.98
2022-11-11T03:34:25.039Z,94.17
2022-11-11T03:37:32.664Z,94.16
2022-11-11T03:40:19.825Z,93.94
2022-11-11T03:43:07.351Z,93.85
2022-11-11T03:45:57.503Z,94.23
2022-11-11T03:48:44.710Z,94.95
2022-11-11T03:51:31.903Z,94.00
2022-11-11T03:54:19.110Z,94.18
2022-11-11T03:57:26.192Z,94.10
2022-11-11T04:00:17.160Z,94.12
2022-11-11T04:06:03.466Z,94.29
2022-11-11T04:09:10.685Z,94.01
2022-11-11T04:11:57.844Z,94.38
2022-11-11T04:15:04.911Z,94.48
2022-11-11T04:17:52.085Z,94.10
2022-11-11T04:20:59.077Z,94.43
2022-11-11T04:23:46.233Z,94.39
2022-11-11T04:26:33.433Z,94.38
2022-11-11T04:29:36.624Z,94.52
2022-11-11T04:32:39.991Z,94.46
2022-11-11T04:35:27.779Z,94.53
2022-11-11T04:38:34.853Z,94.59
2022-11-11T04:41:25.778Z,94.58
2022-11-11T04:44:39.034Z,94.58
2022-11-11T04:47:26.295Z,94.66
2022-11-11T04:50:13.634Z,94.53
2022-11-11T04:53:02.033Z,94.63
2022-11-11T04:56:09.171Z,94.65
2022-11-11T04:59:16.361Z,94.74
2022-11-11T05:02:23.528Z,94.68
2022-11-11T05:05:10.845Z,94.75
2022-11-11T05:08:17.906Z,94.79
2022-11-11T05:11:05.428Z,94.81
2022-11-11T05:14:14.142Z,94.86
2022-11-11T05:17:21.373Z,94.94
2022-11-11T05:20:33.568Z,95.03
2022-11-11T05:23:44.719Z,94.98
2022-11-11T05:26:32.415Z,94.98
2022-11-11T05:29:19.790Z,95.10
2022-11-11T05:32:08.746Z,95.13
2022-11-11T05:34:56.204Z,95.19
2022-11-11T05:37:44.053Z,95.17
2022-11-11T05:40:31.281Z,94.96
2022-11-11T05:43:18.516Z,95.21
2022-11-11T05:46:05.850Z,95.40
2022-11-11T05:49:12.916Z,95.34
2022-11-11T05:52:00.632Z,95.40
2022-11-11T05:54:47.962Z,95.49
2022-11-11T05:57:35.229Z,95.33
2022-11-11T06:00:22.528Z,95.46
2022-11-11T06:03:10.035Z,95.49
2022-11-11T06:05:57.360Z,95.44
2022-11-11T06:08:44.727Z,95.44
2022-11-11T06:11:33.198Z,95.45
2022-11-11T06:14:20.357Z,95.48
2022-11-11T06:17:07.585Z,95.46
2022-11-11T06:19:54.842Z,95.49
2022-11-11T06:22:57.765Z,95.53
2022-11-11T06:26:04.903Z,95.64
2022-11-11T06:28:54.420Z,95.59
2022-11-11T06:31:41.798Z,95.43
2022-11-11T06:34:29.068Z,95.54
2022-11-11T06:37:16.404Z,95.60
2022-11-11T06:40:04.362Z,95.63
2022-11-11T06:42:51.750Z,95.60
2022-11-11T06:45:39.324Z,95.60
2022-11-11T06:48:28.978Z,95.63
2022-11-11T06:51:16.307Z,95.60
2022-11-11T06:54:03.719Z,95.76
2022-11-11T06:56:50.951Z,95.72
2022-11-11T06:59:38.235Z,95.65
2022-11-11T07:02:25.515Z,95.69
2022-11-11T07:05:12.717Z,95.70
2022-11-11T07:08:05.285Z,95.71
2022-11-11T07:10:52.545Z,95.70
2022-11-11T07:13:39.886Z,95.69
2022-11-11T07:16:27.099Z,95.69
2022-11-11T07:19:14.496Z,95.70
2022-11-11T07:22:02.010Z,95.52
2022-11-11T07:24:49.235Z,95.56
2022-11-11T07:27:39.214Z,95.65
2022-11-11T07:30:26.688Z,95.61
2022-11-11T07:33:14.040Z,95.60
2022-11-11T07:36:01.472Z,95.58
2022-11-11T07:38:48.871Z,95.65
2022-11-11T07:41:36.162Z,95.62
2022-11-11T07:44:24.006Z,95.68
2022-11-11T07:47:11.190Z,95.70
2022-11-11T07:50:01.772Z,95.74
2022-11-11T07:52:51.640Z,95.69
2022-11-11T07:55:38.972Z,95.67
2022-11-11T07:58:26.642Z,95.69
2022-11-11T08:01:14.071Z,95.65
2022-11-11T08:04:01.347Z,95.70
2022-11-11T08:06:48.731Z,95.70
2022-11-11T08:09:36.081Z,95.75
2022-11-11T08:12:43.202Z,95.69
2022-11-11T08:15:30.520Z,95.61
2022-11-11T08:18:17.871Z,95.58
2022-11-11T08:21:06.415Z,95.54
2022-11-11T08:24:48.513Z,95.48
2022-11-11T08:27:01.764Z,95.46
2022-11-11T08:29:49.051Z,95.44
2022-11-11T08:32:36.353Z,95.46
2022-11-11T08:35:23.681Z,95.46
2022-11-11T08:38:10.876Z,95.46
2022-11-11T08:41:07.671Z,95.17
2022-11-11T08:43:56.130Z,95.53
2022-11-11T08:46:43.524Z,95.60
2022-11-11T08:49:30.819Z,95.54
2022-11-11T08:52:18.480Z,95.43
2022-11-11T08:55:05.886Z,95.43
2022-11-11T08:58:02.368Z,95.48
2022-11-11T09:00:49.755Z,95.71
2022-11-11T09:03:37.011Z,95.71
2022-11-11T09:06:24.267Z,95.40
2022-11-11T09:09:11.675Z,95.38
2022-11-11T09:11:58.884Z,95.43
2022-11-11T09:14:46.188Z,95.42
2022-11-11T09:17:33.441Z,95.44
2022-11-11T09:20:24.710Z,95.52
2022-11-11T09:23:12.311Z,95.59
2022-11-11T09:26:06.158Z,95.57
2022-11-11T09:28:53.404Z,95.71
2022-11-11T09:31:45.657Z,95.66
2022-11-11T09:34:33.526Z,95.76
2022-11-11T09:37:20.823Z,95.82
2022-11-11T09:40:15.469Z,95.85
2022-11-11T09:43:15.918Z,95.94
2022-11-11T09:46:19.926Z,95.88
2022-11-11T09:57:44.480Z,95.97
2022-11-11T10:00:37.548Z,95.99
2022-11-11T10:03:27.360Z,96.02
2022-11-11T10:06:23.890Z,96.23
2022-11-11T10:09:24.111Z,96.10
2022-11-11T10:12:16.180Z,96.08
2022-11-11T10:15:05.939Z,96.09
2022-11-11T10:18:06.880Z,95.07
2022-11-11T10:20:56.720Z,96.16
2022-11-11T10:23:49.048Z,96.10
2022-11-11T10:26:40.576Z,96.12
2022-11-11T10:29:33.893Z,96.12
2022-11-11T10:32:25.592Z,96.05
2022-11-11T10:40:58.648Z,96.08
2022-11-11T10:43:47.847Z,95.99
2022-11-11T10:46:43.762Z,95.75
2022-11-11T10:49:36.320Z,95.97
2022-11-11T10:52:30.656Z,95.87
2022-11-11T10:55:31.032Z,95.94
2022-11-11T10:58:27.967Z,95.94
2022-11-11T11:01:22.307Z,95.78
2022-11-11T11:04:16.363Z,95.83
2022-11-11T11:07:06.827Z,95.86
2022-11-11T11:10:03.401Z,95.81
2022-11-11T11:12:58.518Z,95.75
2022-11-11T11:15:54.443Z,95.79
2022-11-11T11:18:43.411Z,95.76
2022-11-11T11:21:57.447Z,95.65
2022-11-11T11:24:44.739Z,95.60
2022-11-11T11:27:31.991Z,95.65
2022-11-11T11:33:03.241Z,95.64
2022-11-11T11:35:50.558Z,95.64
2022-11-11T11:38:44.515Z,95.60
2022-11-11T11:41:42.670Z,95.62
2022-11-11T11:44:36.262Z,95.63
2022-11-11T11:55:34.356Z,95.50
2022-11-11T12:04:48.316Z,95.45
2022-11-11T12:13:35.672Z,95.42
2022-11-11T12:16:39.417Z,95.73
2022-11-11T12:19:57.076Z,95.43
2022-11-11T12:28:39.654Z,95.48
2022-11-11T12:34:21.471Z,95.48
2022-11-11T12:51:43.675Z,95.55
2022-11-11T13:00:23.345Z,95.57
2022-11-11T13:06:25.335Z,95.67
2022-11-11T13:09:42.240Z,95.73
2022-11-11T13:12:38.728Z,95.63
2022-11-11T13:15:27.713Z,95.65
2022-11-11T13:18:22.841Z,95.67
2022-11-11T13:21:16.563Z,95.64
2022-11-11T13:24:05.094Z,94.97
2022-11-11T13:27:03.474Z,95.63
2022-11-11T13:32:50.964Z,95.74
2022-11-11T13:35:59.829Z,96.15
2022-11-11T13:44:08.613Z,95.75
2022-11-11T13:47:20.110Z,95.78
2022-11-11T13:52:58.726Z,95.81
2022-11-11T13:55:47.649Z,96.26
2022-11-11T13:58:40.001Z,96.06
2022-11-11T14:01:41.950Z,95.96
2022-11-11T14:04:30.177Z,95.73
2022-11-11T14:15:59.926Z,96.01
2022-11-11T14:18:47.510Z,96.02
2022-11-11T14:24:44.912Z,96.14
2022-11-11T14:27:34.513Z,96.22
2022-11-11T14:30:37.146Z,96.28
2022-11-11T14:36:34.192Z,96.38
2022-11-11T14:39:43.730Z,96.73
2022-11-11T14:48:44.442Z,96.53
2022-11-11T14:51:52.413Z,96.47
2022-11-11T14:54:53.269Z,96.47
2022-11-11T15:00:30.572Z,96.53
2022-11-11T15:03:31.480Z,96.55
2022-11-11T15:06:42.325Z,96.48
2022-11-11T15:09:56.984Z,96.74
2022-11-11T15:15:32.264Z,96.71
2022-11-11T15:21:06.997Z,96.63
2022-11-11T15:24:27.187Z,96.74
2022-11-11T15:27:39.628Z,96.70
2022-11-11T15:30:50.434Z,96.72
2022-11-11T15:39:18.913Z,96.65
2022-11-11T15:42:12.137Z,96.63
2022-11-11T15:45:04.203Z,96.55
2022-11-11T15:47:53.713Z,96.58
2022-11-11T15:50:41.173Z,96.58
2022-11-11T15:53:30.051Z,96.64
2022-11-11T15:56:33.925Z,96.51
2022-11-11T15:59:30.748Z,96.50
2022-11-11T16:02:26.663Z,96.47
2022-11-11T16:05:21.420Z,96.45
2022-11-11T16:08:11.523Z,96.45
2022-11-11T16:11:01.749Z,96.45
2022-11-11T16:16:32.193Z,96.43
2022-11-11T16:19:49.323Z,96.42
2022-11-11T16:22:38.474Z,96.43
2022-11-11T16:25:26.472Z,96.30
2022-11-11T16:28:15.510Z,96.46
2022-11-11T16:31:21.461Z,96.48
2022-11-11T16:39:46.020Z,96.41
2022-11-11T16:42:33.835Z,96.39
2022-11-11T16:45:23.628Z,96.37
2022-11-11T16:54:09.324Z,96.23
2022-11-11T16:56:59.553Z,96.19
2022-11-11T16:59:51.969Z,96.20
2022-11-11T17:02:39.382Z,96.68
2022-11-11T17:05:51.202Z,96.68
2022-11-11T17:14:18.038Z,95.95
2022-11-11T17:17:08.724Z,96.03
2022-11-11T17:19:58.753Z,95.91
2022-11-11T17:22:48.489Z,95.92
2022-11-11T17:25:35.704Z,95.68
2022-11-11T17:28:24.304Z,95.78
2022-11-11T17:31:13.206Z,95.71
2022-11-11T17:34:00.502Z,95.73
2022-11-11T17:36:48.310Z,95.65
2022-11-11T17:39:35.576Z,95.37
2022-11-11T17:42:22.896Z,94.99
2022-11-11T17:45:10.673Z,94.54
2022-11-11T17:47:57.892Z,94.19
2022-11-11T17:50:45.553Z,94.16
2022-11-11T17:53:35.924Z,94.14
2022-11-11T17:56:25.574Z,94.10
2022-11-11T17:59:12.693Z,94.09
2022-11-11T18:02:00.761Z,94.11
2022-11-11T18:04:48.027Z,94.72
2022-11-11T18:07:35.845Z,94.72
2022-11-11T18:10:23.118Z,93.06
2022-11-11T18:13:10.298Z,93.06
2022-11-11T18:16:04.435Z,94.06
2022-11-11T18:18:54.738Z,94.06
2022-11-11T18:21:42.693Z,94.13
2022-11-11T18:24:30.070Z,94.19
2022-11-11T18:27:17.674Z,94.18
2022-11-11T18:30:05.455Z,94.18
2022-11-11T18:32:53.775Z,94.11
2022-11-11T18:35:41.146Z,94.13
2022-11-11T18:38:30.077Z,94.10
2022-11-11T18:41:20.205Z,94.07
2022-11-11T18:44:07.473Z,94.11
2022-11-11T18:46:55.648Z,94.14
2022-11-11T18:49:42.806Z,94.11
2022-11-11T18:52:31.292Z,94.15
2022-11-11T18:55:18.600Z,94.12
2022-11-11T18:58:05.928Z,94.11
2022-11-11T19:00:53.643Z,94.08
2022-11-11T19:03:42.200Z,94.11
2022-11-11T19:06:31.009Z,93.79
2022-11-11T19:09:18.310Z,94.04
2022-11-11T19:12:05.935Z,94.02
2022-11-11T19:14:53.748Z,94.11
2022-11-11T19:17:41.122Z,94.17
2022-11-11T19:20:28.311Z,94.20
2022-11-11T19:23:15.632Z,94.20
2022-11-11T19:26:03.158Z,94.22
2022-11-11T19:28:50.576Z,94.21
2022-11-11T19:31:37.957Z,94.20
2022-11-11T19:34:25.155Z,94.16
2022-11-11T19:37:14.446Z,94.17
2022-11-11T19:40:01.665Z,94.19
2022-11-11T19:42:50.194Z,94.15
2022-11-11T19:45:37.522Z,94.17
2022-11-11T19:48:25.638Z,94.08
2022-11-11T19:51:15.980Z,94.13
2022-11-11T19:54:03.260Z,93.96
2022-11-11T19:56:50.560Z,94.02
2022-11-11T19:59:37.749Z,94.10
2022-11-11T20:02:25.024Z,94.04
2022-11-11T20:05:14.335Z,94.08
2022-11-11T20:08:01.675Z,94.08
2022-11-11T20:10:49.284Z,94.36
2022-11-11T20:13:41.478Z,94.09
2022-11-11T20:16:29.934Z,94.09
2022-11-11T20:19:17.396Z,94.05
2022-11-11T20:22:06.306Z,94.43
2022-11-11T20:24:53.791Z,94.00
2022-11-11T20:27:41.117Z,94.00
2022-11-11T20:30:28.399Z,94.00
2022-11-11T20:33:15.838Z,94.00
2022-11-11T20:36:04.872Z,94.01
2022-11-11T20:38:52.115Z,93.97
2022-11-11T20:41:39.538Z,93.91
2022-11-11T20:44:26.838Z,93.86
2022-11-11T20:47:14.753Z,93.79
2022-11-11T20:50:01.947Z,93.76
2022-11-11T20:52:49.559Z,93.70
2022-11-11T20:55:36.839Z,93.50
2022-11-11T20:58:24.173Z,93.47
2022-11-11T21:01:14.256Z,93.50
2022-11-11T21:04:01.721Z,93.40
2022-11-11T21:06:48.990Z,93.42
2022-11-11T21:09:36.307Z,93.44
2022-11-11T21:12:23.572Z,93.37
2022-11-11T21:15:11.019Z,93.54
2022-11-11T21:17:58.252Z,93.17
2022-11-11T21:20:45.866Z,93.18
2022-11-11T21:23:33.140Z,93.25
2022-11-11T21:26:20.380Z,93.27
2022-11-11T21:29:07.706Z,92.79
2022-11-11T21:31:54.948Z,93.58
2022-11-11T21:34:42.094Z,93.42
2022-11-11T21:37:30.573Z,93.32
2022-11-11T21:40:17.854Z,93.33
2022-11-11T21:43:05.764Z,93.36
2022-11-11T21:45:53.000Z,93.36
2022-11-11T21:48:41.315Z,93.37
2022-11-11T21:51:31.034Z,93.43
2022-11-11T21:54:19.624Z,93.39
2022-11-11T21:57:06.867Z,93.37
2022-11-11T21:59:54.112Z,93.48
2022-11-11T22:02:41.389Z,93.64
2022-11-11T22:05:28.580Z,94.18
2022-11-11T22:08:15.878Z,93.54
2022-11-11T22:11:06.990Z,94.01
2022-11-11T22:13:54.567Z,94.16
2022-11-11T22:16:41.828Z,94.25
2022-11-11T22:19:29.195Z,94.25
2022-11-11T22:22:16.424Z,94.36
2022-11-11T22:25:03.883Z,94.48
2022-11-11T22:27:53.300Z,94.48
2022-11-11T22:30:40.469Z,94.59
2022-11-11T22:33:27.754Z,94.67
2022-11-11T22:36:18.248Z,94.69
2022-11-11T22:39:07.268Z,94.72
2022-11-11T22:41:54.516Z,94.68
2022-11-11T22:44:41.787Z,94.65
2022-11-11T22:47:31.021Z,94.64
2022-11-11T22:50:18.437Z,94.67
2022-11-11T22:53:05.713Z,94.69
2022-11-11T22:55:52.827Z,94.73
2022-11-11T22:58:42.145Z,94.70
2022-11-11T23:01:31.702Z,94.70
2022-11-11T23:04:18.820Z,94.67
2022-11-11T23:07:06.048Z,94.75
2022-11-11T23:09:53.493Z,94.74
2022-11-11T23:12:40.825Z,94.77
2022-11-11T23:15:28.066Z,94.66
2022-11-11T23:18:15.259Z,94.62
2022-11-11T23:21:05.102Z,94.57
2022-11-11T23:23:52.460Z,94.59
2022-11-11T23:26:39.711Z,94.62
2022-11-11T23:29:26.989Z,94.50
2022-11-11T23:32:14.932Z,94.45
2022-11-11T23:35:02.151Z,94.46
2022-11-11T23:37:49.395Z,94.49
2022-11-11T23:40:36.658Z,94.45
2022-11-11T23:43:24.938Z,94.32
2022-11-11T23:46:12.542Z,94.29
2022-11-11T23:48:59.894Z,94.23
2022-11-11T23:51:47.034Z,94.17
2022-11-11T23:54:34.184Z,94.17
2022-11-11T23:57:21.459Z,94.19
